createdAt,value
2017-05-05T00:00:02.003Z,827.07
2017-05-05T00:00:06.430Z,827.03
2017-05-05T00:00:10.737Z,827.03
2017-05-05T00:00:15.045Z,827.01
2017-05-05T00:00:19.467Z,827.05
2017-05-05T00:00:23.776Z,827.05
2017-05-05T00:00:28.200Z,827.04
2017-05-05T00:00:32.269Z,827.06
2017-05-05T00:00:36.580Z,827.06
2017-05-05T00:00:41.008Z,827.05
2017-05-05T00:00:45.443Z,827.07
2017-05-05T00:00:49.868Z,827.08
2017-05-05T00:00:54.292Z,827.05
2017-05-05T00:00:58.608Z,827.08
2017-05-05T00:01:03.037Z,827.06
2017-05-05T00:01:07.464Z,827.07
2017-05-05T00:01:11.770Z,827.02
2017-05-05T00:01:16.199Z,827.05
2017-05-05T00:01:20.624Z,827.01
2017-05-05T00:01:25.050Z,827.02
2017-05-05T00:01:29.240Z,827.02
2017-05-05T00:01:33.674Z,827.09
2017-05-05T00:01:37.980Z,827.11
2017-05-05T00:01:42.405Z,827.11
2017-05-05T00:01:46.835Z,827.1
2017-05-05T00:01:51.149Z,827.06
2017-05-05T00:01:55.340Z,827.09
2017-05-05T00:01:59.653Z,827.09
2017-05-05T00:02:04.115Z,827.06
2017-05-05T00:02:08.187Z,827.04
2017-05-05T00:02:12.607Z,827.07
2017-05-05T00:02:16.914Z,827.08
2017-05-05T00:02:21.345Z,827.08
2017-05-05T00:02:25.653Z,827.09
2017-05-05T00:02:30.081Z,827.05
2017-05-05T00:02:34.507Z,827.11
2017-05-05T00:02:38.817Z,827.05
2017-05-05T00:02:43.252Z,827.08
2017-05-05T00:02:47.560Z,827.06
2017-05-05T00:02:51.988Z,827.04
2017-05-05T00:02:56.418Z,827.06
2017-05-05T00:03:00.853Z,827.03
2017-05-05T00:03:05.275Z,827.05
2017-05-05T00:03:09.705Z,827.03
2017-05-05T00:03:13.898Z,826.99
2017-05-05T00:03:18.329Z,826.98
2017-05-05T00:03:22.761Z,827.02
2017-05-05T00:03:27.191Z,827.04
2017-05-05T00:03:31.921Z,827.04
2017-05-05T00:03:36.352Z,827.07
2017-05-05T00:03:40.661Z,827.04
2017-05-05T00:03:45.092Z,827.05
2017-05-05T00:03:49.517Z,827.04
2017-05-05T00:03:53.946Z,827.04
2017-05-05T00:03:58.382Z,827.1
2017-05-05T00:04:02.818Z,827.05
2017-05-05T00:04:07.015Z,827.09
2017-05-05T00:04:11.331Z,827.11
2017-05-05T00:04:15.644Z,827.09
2017-05-05T00:04:20.066Z,827.07
2017-05-05T00:04:24.376Z,827.08
2017-05-05T00:04:28.800Z,827.12
2017-05-05T00:04:33.226Z,827.15
2017-05-05T00:04:37.652Z,827.1
2017-05-05T00:04:42.079Z,827.17
2017-05-05T00:04:46.158Z,827.17
2017-05-05T00:04:50.461Z,827.18
2017-05-05T00:04:54.793Z,827.19
2017-05-05T00:04:58.981Z,827.12
2017-05-05T00:05:03.334Z,827.16
2017-05-05T00:05:07.650Z,827.16
2017-05-05T00:05:11.956Z,827.15
2017-05-05T00:05:16.261Z,827.13
2017-05-05T00:05:20.685Z,827.15
2017-05-05T00:05:24.996Z,827.15
2017-05-05T00:05:29.441Z,827.09
2017-05-05T00:05:33.861Z,827.17
2017-05-05T00:05:38.289Z,827.13
2017-05-05T00:05:42.715Z,827.15
2017-05-05T00:05:47.142Z,827.22
2017-05-05T00:05:51.565Z,827.17
2017-05-05T00:05:55.757Z,827.17
2017-05-05T00:06:00.070Z,827.18
2017-05-05T00:06:04.743Z,827.18
2017-05-05T00:06:09.046Z,827.2
2017-05-05T00:06:13.351Z,827.18
2017-05-05T00:06:17.670Z,827.24
2017-05-05T00:06:21.970Z,827.23
2017-05-05T00:06:26.393Z,827.22
2017-05-05T00:06:30.820Z,827.21
2017-05-05T00:06:35.248Z,827.25
2017-05-05T00:06:39.553Z,827.28
2017-05-05T00:06:43.977Z,827.24
2017-05-05T00:06:48.287Z,827.25
2017-05-05T00:06:52.711Z,827.25
2017-05-05T00:06:57.132Z,827.25
2017-05-05T00:07:01.562Z,827.25
2017-05-05T00:07:05.880Z,827.28
2017-05-05T00:07:10.350Z,827.29
2017-05-05T00:07:14.536Z,827.26
2017-05-05T00:07:18.850Z,827.26
2017-05-05T00:07:23.166Z,827.31
2017-05-05T00:07:27.611Z,827.29
2017-05-05T00:07:31.921Z,827.29
2017-05-05T00:07:36.346Z,827.23
2017-05-05T00:07:40.656Z,827.31
2017-05-05T00:07:44.979Z,827.26
2017-05-05T00:07:49.409Z,827.33
2017-05-05T00:07:53.716Z,827.3
2017-05-05T00:07:57.911Z,827.33
2017-05-05T00:08:02.339Z,827.31
2017-05-05T00:08:06.765Z,827.32
2017-05-05T00:08:10.955Z,827.33
2017-05-05T00:08:15.269Z,827.36
2017-05-05T00:08:19.694Z,827.37
2017-05-05T00:08:24.009Z,827.36
2017-05-05T00:08:28.441Z,827.36
2017-05-05T00:08:32.869Z,827.33
2017-05-05T00:08:37.204Z,827.36
2017-05-05T00:08:41.631Z,827.4
2017-05-05T00:08:45.936Z,827.41
2017-05-05T00:08:50.242Z,827.42
2017-05-05T00:08:54.667Z,827.44
2017-05-05T00:08:58.983Z,827.46
2017-05-05T00:09:03.414Z,827.44
2017-05-05T00:09:07.727Z,827.46
2017-05-05T00:09:12.164Z,827.45
2017-05-05T00:09:16.503Z,827.48
2017-05-05T00:09:20.935Z,827.48
2017-05-05T00:09:25.251Z,827.46
2017-05-05T00:09:29.706Z,827.5
2017-05-05T00:09:34.156Z,827.48
2017-05-05T00:09:38.342Z,827.47
2017-05-05T00:09:42.771Z,827.51
2017-05-05T00:09:47.209Z,827.51
2017-05-05T00:09:51.657Z,827.5
2017-05-05T00:09:55.958Z,827.5
2017-05-05T00:10:00.262Z,827.53
2017-05-05T00:10:04.939Z,827.51
2017-05-05T00:10:09.383Z,827.54
2017-05-05T00:10:13.809Z,827.52
2017-05-05T00:10:18.233Z,827.53
2017-05-05T00:10:22.307Z,827.55
2017-05-05T00:10:26.613Z,827.56
2017-05-05T00:10:30.808Z,827.59
2017-05-05T00:10:35.234Z,827.58
2017-05-05T00:10:39.686Z,827.59
2017-05-05T00:10:43.988Z,827.59
2017-05-05T00:10:48.413Z,827.58
2017-05-05T00:10:52.836Z,827.54
2017-05-05T00:10:57.291Z,827.53
2017-05-05T00:11:01.720Z,827.57
2017-05-05T00:11:06.138Z,827.57
2017-05-05T00:11:10.443Z,827.6
2017-05-05T00:11:14.641Z,827.6
2017-05-05T00:11:19.068Z,827.59
2017-05-05T00:11:23.379Z,827.59
2017-05-05T00:11:27.808Z,827.58
2017-05-05T00:11:32.260Z,827.59
2017-05-05T00:11:36.682Z,827.55
2017-05-05T00:11:41.104Z,827.57
2017-05-05T00:11:45.536Z,827.58
2017-05-05T00:11:49.849Z,827.59
2017-05-05T00:11:54.275Z,827.53
2017-05-05T00:11:58.705Z,827.53
2017-05-05T00:12:03.064Z,827.52
2017-05-05T00:12:07.254Z,827.53
2017-05-05T00:12:11.564Z,827.6
2017-05-05T00:12:15.637Z,827.62
2017-05-05T00:12:20.065Z,827.61
2017-05-05T00:12:24.386Z,827.61
2017-05-05T00:12:28.804Z,827.64
2017-05-05T00:12:33.117Z,827.63
2017-05-05T00:12:37.551Z,827.63
2017-05-05T00:12:42.010Z,827.62
2017-05-05T00:12:46.439Z,827.63
2017-05-05T00:12:50.755Z,827.64
2017-05-05T00:12:55.187Z,827.64
2017-05-05T00:12:59.619Z,827.63
2017-05-05T00:13:04.046Z,827.63
2017-05-05T00:13:08.350Z,827.63
2017-05-05T00:13:12.558Z,827.63
2017-05-05T00:13:17.017Z,827.58
2017-05-05T00:13:21.443Z,827.61
2017-05-05T00:13:25.756Z,827.6
2017-05-05T00:13:30.185Z,827.57
2017-05-05T00:13:34.809Z,827.58
2017-05-05T00:13:39.115Z,827.61
2017-05-05T00:13:43.549Z,827.61
2017-05-05T00:13:47.984Z,827.6
2017-05-05T00:13:52.291Z,827.59
2017-05-05T00:13:56.596Z,827.57
2017-05-05T00:14:00.791Z,827.65
2017-05-05T00:14:05.526Z,827.67
2017-05-05T00:14:09.862Z,827.65
2017-05-05T00:14:14.176Z,827.66
2017-05-05T00:14:18.481Z,827.68
2017-05-05T00:14:22.912Z,827.67
2017-05-05T00:14:27.361Z,827.69
2017-05-05T00:14:31.668Z,827.69
2017-05-05T00:14:36.094Z,827.68
2017-05-05T00:14:40.525Z,827.69
2017-05-05T00:14:44.984Z,827.72
2017-05-05T00:14:49.411Z,827.66
2017-05-05T00:14:53.830Z,827.72
2017-05-05T00:14:58.143Z,827.73
2017-05-05T00:15:02.580Z,827.67
2017-05-05T00:15:06.886Z,827.72
2017-05-05T00:15:11.198Z,827.73
2017-05-05T00:15:15.384Z,827.68
2017-05-05T00:15:19.689Z,827.71
2017-05-05T00:15:24.113Z,827.75
2017-05-05T00:15:28.543Z,827.74
2017-05-05T00:15:32.994Z,827.74
2017-05-05T00:15:37.419Z,827.74
2017-05-05T00:15:41.845Z,827.74
2017-05-05T00:15:46.287Z,827.78
2017-05-05T00:15:50.593Z,827.76
2017-05-05T00:15:55.022Z,827.76
2017-05-05T00:15:59.351Z,827.76
2017-05-05T00:16:03.934Z,827.8
2017-05-05T00:16:08.242Z,827.81
2017-05-05T00:16:12.668Z,827.82
2017-05-05T00:16:17.094Z,827.82
2017-05-05T00:16:21.521Z,827.84
2017-05-05T00:16:25.719Z,827.81
2017-05-05T00:16:30.158Z,827.82
2017-05-05T00:16:34.594Z,827.83
2017-05-05T00:16:39.014Z,827.86
2017-05-05T00:16:43.446Z,827.82
2017-05-05T00:16:47.879Z,827.84
2017-05-05T00:16:52.066Z,827.86
2017-05-05T00:16:56.259Z,827.86
2017-05-05T00:17:00.581Z,827.85
2017-05-05T00:17:05.082Z,827.84
2017-05-05T00:17:09.502Z,827.86
2017-05-05T00:17:13.817Z,827.85
2017-05-05T00:17:18.261Z,827.88
2017-05-05T00:17:22.565Z,827.86
2017-05-05T00:17:26.989Z,827.9
2017-05-05T00:17:31.298Z,827.9
2017-05-05T00:17:35.755Z,827.91
2017-05-05T00:17:40.188Z,827.92
2017-05-05T00:17:44.616Z,827.91
2017-05-05T00:17:48.927Z,827.9
2017-05-05T00:17:53.232Z,827.9
2017-05-05T00:17:57.308Z,827.91
2017-05-05T00:18:01.727Z,827.94
2017-05-05T00:18:06.150Z,827.9
2017-05-05T00:18:10.585Z,827.92
2017-05-05T00:18:15.012Z,827.87
2017-05-05T00:18:19.438Z,827.86
2017-05-05T00:18:23.756Z,827.95
2017-05-05T00:18:28.075Z,827.88
2017-05-05T00:18:32.381Z,827.95
2017-05-05T00:18:36.810Z,827.98
2017-05-05T00:18:41.250Z,827.91
2017-05-05T00:18:45.672Z,827.9
2017-05-05T00:18:49.979Z,827.89
2017-05-05T00:18:54.411Z,827.9
2017-05-05T00:18:58.623Z,827.96
2017-05-05T00:19:03.347Z,827.93
2017-05-05T00:19:07.656Z,827.94
2017-05-05T00:19:12.082Z,827.95
2017-05-05T00:19:16.517Z,827.97
2017-05-05T00:19:20.945Z,827.95
2017-05-05T00:19:25.371Z,827.95
2017-05-05T00:19:29.795Z,827.92
2017-05-05T00:19:34.257Z,827.93
2017-05-05T00:19:38.681Z,827.94
2017-05-05T00:19:43.108Z,827.94
2017-05-05T00:19:47.538Z,827.98
2017-05-05T00:19:51.968Z,827.97
2017-05-05T00:19:56.401Z,827.99
2017-05-05T00:20:00.824Z,827.98
2017-05-05T00:20:05.411Z,827.96
2017-05-05T00:20:09.725Z,827.98
2017-05-05T00:20:13.690Z,827.93
2017-05-05T00:20:18.108Z,827.93
2017-05-05T00:20:22.534Z,828.01
2017-05-05T00:20:26.964Z,828.01
2017-05-05T00:20:31.034Z,827.99
2017-05-05T00:20:35.458Z,827.96
2017-05-05T00:20:39.890Z,827.99
2017-05-05T00:20:44.192Z,828.03
2017-05-05T00:20:48.495Z,827.98
2017-05-05T00:20:52.804Z,827.98
2017-05-05T00:20:57.138Z,827.97
2017-05-05T00:21:01.821Z,827.99
2017-05-05T00:21:06.248Z,828
2017-05-05T00:21:10.555Z,827.99
2017-05-05T00:21:14.889Z,827.97
2017-05-05T00:21:19.319Z,828.03
2017-05-05T00:21:23.740Z,828.01
2017-05-05T00:21:28.044Z,828.03
2017-05-05T00:21:32.468Z,828.03
2017-05-05T00:21:36.905Z,828.06
2017-05-05T00:21:41.324Z,827.98
2017-05-05T00:21:45.759Z,828.07
2017-05-05T00:21:50.069Z,828.07
2017-05-05T00:21:54.494Z,828.07
2017-05-05T00:21:58.562Z,828.04
2017-05-05T00:22:03.238Z,828.08
2017-05-05T00:22:07.552Z,828.08
2017-05-05T00:22:11.626Z,828.05
2017-05-05T00:22:15.819Z,828.05
2017-05-05T00:22:20.130Z,828.08
2017-05-05T00:22:24.439Z,828.09
2017-05-05T00:22:28.867Z,828.08
2017-05-05T00:22:33.173Z,828.07
2017-05-05T00:22:37.593Z,828.11
2017-05-05T00:22:42.024Z,828.11
2017-05-05T00:22:46.446Z,828.11
2017-05-05T00:22:50.631Z,828.13
2017-05-05T00:22:55.062Z,828.12
2017-05-05T00:22:59.380Z,828.14
2017-05-05T00:23:03.803Z,828.16
2017-05-05T00:23:07.993Z,828.13
2017-05-05T00:23:12.302Z,828.13
2017-05-05T00:23:16.617Z,828.16
2017-05-05T00:23:21.043Z,828.15
2017-05-05T00:23:25.476Z,828.11
2017-05-05T00:23:29.908Z,828.15
2017-05-05T00:23:34.217Z,828.13
2017-05-05T00:23:38.528Z,828.15
2017-05-05T00:23:42.957Z,828.18
2017-05-05T00:23:47.379Z,828.22
2017-05-05T00:23:51.836Z,828.22
2017-05-05T00:23:56.153Z,828.25
2017-05-05T00:24:00.458Z,828.23
2017-05-05T00:24:04.773Z,828.23
2017-05-05T00:24:09.088Z,828.23
2017-05-05T00:24:13.281Z,828.26
2017-05-05T00:24:17.594Z,828.28
2017-05-05T00:24:21.909Z,828.29
2017-05-05T00:24:26.339Z,828.3
2017-05-05T00:24:30.767Z,828.28
2017-05-05T00:24:35.194Z,828.31
2017-05-05T00:24:39.629Z,828.3
2017-05-05T00:24:44.052Z,828.31
2017-05-05T00:24:48.353Z,828.29
2017-05-05T00:24:52.777Z,828.32
2017-05-05T00:24:56.871Z,828.32
2017-05-05T00:25:01.306Z,828.31
2017-05-05T00:25:05.737Z,828.31
2017-05-05T00:25:10.165Z,828.32
2017-05-05T00:25:14.478Z,828.34
2017-05-05T00:25:18.782Z,828.32
2017-05-05T00:25:22.973Z,828.31
2017-05-05T00:25:27.398Z,828.32
2017-05-05T00:25:31.830Z,828.35
2017-05-05T00:25:36.135Z,828.32
2017-05-05T00:25:40.561Z,828.33
2017-05-05T00:25:44.989Z,828.34
2017-05-05T00:25:49.414Z,828.34
2017-05-05T00:25:53.721Z,828.33
2017-05-05T00:25:58.025Z,828.33
2017-05-05T00:26:02.596Z,828.34
2017-05-05T00:26:06.907Z,828.35
2017-05-05T00:26:11.096Z,828.35
2017-05-05T00:26:15.282Z,828.41
2017-05-05T00:26:19.710Z,828.39
2017-05-05T00:26:24.169Z,828.41
2017-05-05T00:26:28.596Z,828.41
2017-05-05T00:26:33.021Z,828.4
2017-05-05T00:26:37.448Z,828.42
2017-05-05T00:26:41.908Z,828.43
2017-05-05T00:26:46.224Z,828.45
2017-05-05T00:26:50.527Z,828.42
2017-05-05T00:26:54.963Z,828.42
2017-05-05T00:26:59.163Z,828.4
2017-05-05T00:27:03.585Z,828.39
2017-05-05T00:27:07.776Z,828.43
2017-05-05T00:27:11.960Z,828.44
2017-05-05T00:27:16.393Z,828.45
2017-05-05T00:27:20.824Z,828.4
2017-05-05T00:27:25.253Z,828.41
2017-05-05T00:27:29.561Z,828.42
2017-05-05T00:27:33.991Z,828.41
2017-05-05T00:27:38.428Z,828.43
2017-05-05T00:27:42.857Z,828.4
2017-05-05T00:27:47.287Z,828.46
2017-05-05T00:27:51.482Z,828.44
2017-05-05T00:27:55.795Z,828.45
2017-05-05T00:27:59.986Z,828.45
2017-05-05T00:28:04.608Z,828.46
2017-05-05T00:28:08.804Z,828.45
2017-05-05T00:28:12.997Z,828.45
2017-05-05T00:28:17.306Z,828.48
2017-05-05T00:28:21.769Z,828.48
2017-05-05T00:28:26.077Z,828.46
2017-05-05T00:28:30.499Z,828.47
2017-05-05T00:28:34.932Z,828.48
2017-05-05T00:28:39.303Z,828.48
2017-05-05T00:28:43.731Z,828.44
2017-05-05T00:28:47.923Z,828.47
2017-05-05T00:28:52.343Z,828.47
2017-05-05T00:28:56.692Z,828.48
2017-05-05T00:29:01.003Z,828.47
2017-05-05T00:29:05.531Z,828.45
2017-05-05T00:29:09.718Z,828.49
2017-05-05T00:29:14.032Z,828.44
2017-05-05T00:29:18.451Z,828.47
2017-05-05T00:29:22.880Z,828.46
2017-05-05T00:29:27.307Z,828.48
2017-05-05T00:29:31.765Z,828.49
2017-05-05T00:29:36.194Z,828.51
2017-05-05T00:29:40.618Z,828.5
2017-05-05T00:29:44.932Z,828.48
2017-05-05T00:29:49.391Z,828.5
2017-05-05T00:29:53.698Z,828.48
2017-05-05T00:29:57.893Z,828.49
2017-05-05T00:30:02.411Z,828.49
2017-05-05T00:30:06.595Z,828.52
2017-05-05T00:30:10.799Z,828.49
2017-05-05T00:30:15.235Z,828.5
2017-05-05T00:30:19.654Z,828.48
2017-05-05T00:30:23.956Z,828.48
2017-05-05T00:30:28.380Z,828.5
2017-05-05T00:30:32.832Z,828.48
2017-05-05T00:30:37.255Z,828.48
2017-05-05T00:30:41.446Z,828.52
2017-05-05T00:30:45.768Z,828.49
2017-05-05T00:30:50.105Z,828.48
2017-05-05T00:30:54.411Z,828.48
2017-05-05T00:30:58.602Z,828.47
2017-05-05T00:31:03.037Z,828.49
2017-05-05T00:31:07.472Z,828.5
2017-05-05T00:31:11.893Z,828.48
2017-05-05T00:31:16.205Z,828.48
2017-05-05T00:31:20.528Z,828.5
2017-05-05T00:31:24.718Z,828.54
2017-05-05T00:31:29.140Z,828.49
2017-05-05T00:31:33.560Z,828.5
2017-05-05T00:31:37.880Z,828.53
2017-05-05T00:31:42.303Z,828.5
2017-05-05T00:31:46.728Z,828.49
2017-05-05T00:31:51.153Z,828.48
2017-05-05T00:31:55.588Z,828.49
2017-05-05T00:32:00.013Z,828.5
2017-05-05T00:32:04.687Z,828.51
2017-05-05T00:32:09.114Z,828.51
2017-05-05T00:32:13.303Z,828.55
2017-05-05T00:32:17.731Z,828.53
2017-05-05T00:32:22.153Z,828.49
2017-05-05T00:32:26.576Z,828.53
2017-05-05T00:32:31.005Z,828.53
2017-05-05T00:32:35.328Z,828.5
2017-05-05T00:32:39.758Z,828.52
2017-05-05T00:32:44.086Z,828.44
2017-05-05T00:32:48.512Z,828.48
2017-05-05T00:32:52.830Z,828.47
2017-05-05T00:32:57.141Z,828.47
2017-05-05T00:33:01.584Z,828.52
2017-05-05T00:33:06.066Z,828.54
2017-05-05T00:33:10.382Z,828.54
2017-05-05T00:33:14.695Z,828.54
2017-05-05T00:33:19.122Z,828.55
2017-05-05T00:33:23.438Z,828.56
2017-05-05T00:33:27.746Z,828.55
2017-05-05T00:33:32.172Z,828.54
2017-05-05T00:33:36.481Z,828.56
2017-05-05T00:33:41.213Z,828.54
2017-05-05T00:33:45.522Z,828.55
2017-05-05T00:33:49.953Z,828.57
2017-05-05T00:33:54.384Z,828.59
2017-05-05T00:33:58.713Z,828.55
2017-05-05T00:34:03.465Z,828.55
2017-05-05T00:34:07.657Z,828.58
2017-05-05T00:34:12.087Z,828.58
2017-05-05T00:34:16.395Z,828.58
2017-05-05T00:34:20.818Z,828.59
2017-05-05T00:34:25.127Z,828.59
2017-05-05T00:34:29.561Z,828.57
2017-05-05T00:34:33.995Z,828.6
2017-05-05T00:34:38.417Z,828.59
2017-05-05T00:34:42.727Z,828.61
2017-05-05T00:34:47.035Z,828.59
2017-05-05T00:34:51.462Z,828.62
2017-05-05T00:34:55.774Z,828.57
2017-05-05T00:35:00.215Z,828.58
2017-05-05T00:35:04.486Z,828.66
2017-05-05T00:35:08.922Z,828.61
2017-05-05T00:35:13.230Z,828.61
2017-05-05T00:35:17.542Z,828.66
2017-05-05T00:35:21.968Z,828.62
2017-05-05T00:35:26.281Z,828.64
2017-05-05T00:35:30.699Z,828.69
2017-05-05T00:35:35.129Z,828.67
2017-05-05T00:35:39.554Z,828.64
2017-05-05T00:35:43.990Z,828.67
2017-05-05T00:35:48.418Z,828.68
2017-05-05T00:35:52.842Z,828.67
2017-05-05T00:35:57.266Z,828.7
2017-05-05T00:36:01.574Z,828.71
2017-05-05T00:36:06.028Z,828.68
2017-05-05T00:36:10.220Z,828.69
2017-05-05T00:36:14.411Z,828.72
2017-05-05T00:36:18.725Z,828.7
2017-05-05T00:36:23.024Z,828.73
2017-05-05T00:36:27.447Z,828.7
2017-05-05T00:36:31.877Z,828.72
2017-05-05T00:36:36.301Z,828.73
2017-05-05T00:36:40.724Z,828.74
2017-05-05T00:36:45.149Z,828.75
2017-05-05T00:36:49.590Z,828.74
2017-05-05T00:36:54.015Z,828.76
2017-05-05T00:36:58.319Z,828.74
2017-05-05T00:37:02.743Z,828.75
2017-05-05T00:37:06.942Z,828.74
2017-05-05T00:37:11.163Z,828.74
2017-05-05T00:37:15.467Z,828.77
2017-05-05T00:37:19.774Z,828.76
2017-05-05T00:37:24.198Z,828.76
2017-05-05T00:37:28.631Z,828.79
2017-05-05T00:37:33.057Z,828.78
2017-05-05T00:37:37.477Z,828.77
2017-05-05T00:37:41.911Z,828.78
2017-05-05T00:37:46.362Z,828.79
2017-05-05T00:37:50.676Z,828.8
2017-05-05T00:37:54.984Z,828.79
2017-05-05T00:37:59.413Z,828.81
2017-05-05T00:38:04.162Z,828.8
2017-05-05T00:38:08.465Z,828.82
2017-05-05T00:38:12.772Z,828.81
2017-05-05T00:38:17.202Z,828.76
2017-05-05T00:38:21.624Z,828.79
2017-05-05T00:38:25.942Z,828.78
2017-05-05T00:38:30.244Z,828.81
2017-05-05T00:38:34.569Z,828.83
2017-05-05T00:38:39.023Z,828.81
2017-05-05T00:38:43.217Z,828.83
2017-05-05T00:38:47.641Z,828.8
2017-05-05T00:38:51.963Z,828.81
2017-05-05T00:38:56.406Z,828.83
2017-05-05T00:39:00.723Z,828.8
2017-05-05T00:39:05.145Z,828.82
2017-05-05T00:39:09.462Z,828.85
2017-05-05T00:39:13.888Z,828.85
2017-05-05T00:39:18.313Z,828.81
2017-05-05T00:39:22.740Z,828.83
2017-05-05T00:39:27.176Z,828.87
2017-05-05T00:39:31.597Z,828.88
2017-05-05T00:39:35.898Z,828.86
2017-05-05T00:39:40.326Z,828.87
2017-05-05T00:39:44.789Z,828.89
2017-05-05T00:39:49.214Z,828.88
2017-05-05T00:39:53.644Z,828.87
2017-05-05T00:39:58.006Z,828.86
2017-05-05T00:40:02.318Z,828.88
2017-05-05T00:40:06.757Z,828.89
2017-05-05T00:40:11.184Z,828.83
2017-05-05T00:40:15.487Z,828.82
2017-05-05T00:40:19.801Z,828.83
2017-05-05T00:40:24.116Z,828.85
2017-05-05T00:40:28.539Z,828.87
2017-05-05T00:40:32.729Z,828.9
2017-05-05T00:40:37.158Z,828.87
2017-05-05T00:40:41.610Z,828.91
2017-05-05T00:40:46.032Z,828.9
2017-05-05T00:40:50.463Z,828.91
2017-05-05T00:40:54.901Z,828.91
2017-05-05T00:40:59.098Z,828.86
2017-05-05T00:41:03.828Z,828.83
2017-05-05T00:41:08.137Z,828.86
2017-05-05T00:41:12.560Z,828.89
2017-05-05T00:41:16.874Z,828.85
2017-05-05T00:41:21.295Z,828.9
2017-05-05T00:41:25.605Z,828.9
2017-05-05T00:41:29.804Z,828.91
2017-05-05T00:41:34.226Z,828.86
2017-05-05T00:41:38.539Z,828.88
2017-05-05T00:41:42.964Z,828.88
2017-05-05T00:41:47.301Z,828.9
2017-05-05T00:41:51.610Z,828.9
2017-05-05T00:41:56.038Z,828.88
2017-05-05T00:42:00.358Z,828.9
2017-05-05T00:42:04.932Z,828.89
2017-05-05T00:42:09.368Z,828.91
2017-05-05T00:42:13.693Z,828.87
2017-05-05T00:42:18.115Z,828.87
2017-05-05T00:42:22.422Z,828.89
2017-05-05T00:42:26.849Z,828.9
2017-05-05T00:42:31.041Z,828.9
2017-05-05T00:42:35.474Z,828.89
2017-05-05T00:42:39.900Z,828.89
2017-05-05T00:42:44.328Z,828.9
2017-05-05T00:42:48.764Z,828.92
2017-05-05T00:42:53.073Z,828.9
2017-05-05T00:42:57.267Z,828.91
2017-05-05T00:43:01.579Z,828.93
2017-05-05T00:43:06.005Z,828.91
2017-05-05T00:43:10.317Z,828.92
2017-05-05T00:43:14.515Z,828.92
2017-05-05T00:43:18.941Z,828.91
2017-05-05T00:43:23.372Z,828.9
2017-05-05T00:43:27.681Z,828.91
2017-05-05T00:43:31.986Z,828.92
2017-05-05T00:43:36.311Z,828.88
2017-05-05T00:43:40.740Z,828.89
2017-05-05T00:43:45.162Z,828.91
2017-05-05T00:43:49.586Z,828.91
2017-05-05T00:43:54.022Z,828.89
2017-05-05T00:43:58.324Z,828.93
2017-05-05T00:44:02.630Z,828.91
2017-05-05T00:44:06.946Z,828.88
2017-05-05T00:44:11.148Z,828.88
2017-05-05T00:44:15.472Z,828.88
2017-05-05T00:44:19.785Z,828.82
2017-05-05T00:44:24.208Z,828.89
2017-05-05T00:44:28.638Z,828.88
2017-05-05T00:44:33.078Z,828.89
2017-05-05T00:44:37.501Z,828.85
2017-05-05T00:44:41.927Z,828.84
2017-05-05T00:44:46.354Z,828.83
2017-05-05T00:44:50.781Z,828.85
2017-05-05T00:44:55.201Z,828.89
2017-05-05T00:44:59.506Z,828.94
2017-05-05T00:45:04.009Z,828.92
2017-05-05T00:45:08.316Z,828.89
2017-05-05T00:45:12.506Z,828.88
2017-05-05T00:45:16.815Z,828.89
2017-05-05T00:45:21.242Z,828.88
2017-05-05T00:45:25.548Z,828.89
2017-05-05T00:45:29.969Z,828.89
2017-05-05T00:45:34.392Z,828.88
2017-05-05T00:45:38.823Z,828.87
2017-05-05T00:45:43.250Z,828.89
2017-05-05T00:45:47.675Z,828.87
2017-05-05T00:45:52.098Z,828.88
2017-05-05T00:45:56.401Z,828.88
2017-05-05T00:46:00.481Z,828.87
2017-05-05T00:46:04.789Z,828.9
2017-05-05T00:46:08.976Z,828.9
2017-05-05T00:46:13.170Z,828.86
2017-05-05T00:46:17.595Z,828.87
2017-05-05T00:46:22.019Z,828.88
2017-05-05T00:46:26.439Z,828.9
2017-05-05T00:46:30.868Z,828.88
2017-05-05T00:46:35.294Z,828.91
2017-05-05T00:46:39.599Z,828.85
2017-05-05T00:46:44.023Z,828.83
2017-05-05T00:46:48.460Z,828.87
2017-05-05T00:46:52.791Z,828.86
2017-05-05T00:46:57.215Z,828.87
2017-05-05T00:47:01.521Z,828.87
2017-05-05T00:47:05.835Z,828.82
2017-05-05T00:47:10.151Z,828.85
2017-05-05T00:47:14.574Z,828.85
2017-05-05T00:47:18.882Z,828.88
2017-05-05T00:47:23.074Z,828.87
2017-05-05T00:47:27.532Z,828.84
2017-05-05T00:47:31.955Z,828.86
2017-05-05T00:47:36.393Z,828.79
2017-05-05T00:47:40.820Z,828.85
2017-05-05T00:47:45.016Z,828.84
2017-05-05T00:47:49.443Z,828.83
2017-05-05T00:47:53.864Z,828.87
2017-05-05T00:47:58.174Z,828.86
2017-05-05T00:48:02.611Z,828.86
2017-05-05T00:48:06.918Z,828.87
2017-05-05T00:48:11.103Z,828.87
2017-05-05T00:48:15.420Z,828.89
2017-05-05T00:48:19.760Z,828.87
2017-05-05T00:48:24.077Z,828.87
2017-05-05T00:48:28.502Z,828.86
2017-05-05T00:48:32.933Z,828.83
2017-05-05T00:48:37.371Z,828.84
2017-05-05T00:48:41.678Z,828.85
2017-05-05T00:48:45.873Z,828.84
2017-05-05T00:48:50.302Z,828.85
2017-05-05T00:48:54.739Z,828.82
2017-05-05T00:48:59.165Z,828.84
2017-05-05T00:49:03.792Z,828.85
2017-05-05T00:49:08.211Z,828.86
2017-05-05T00:49:12.407Z,828.85
2017-05-05T00:49:16.838Z,828.84
2017-05-05T00:49:21.267Z,828.86
2017-05-05T00:49:25.698Z,828.88
2017-05-05T00:49:30.009Z,828.86
2017-05-05T00:49:34.321Z,828.86
2017-05-05T00:49:38.752Z,828.84
2017-05-05T00:49:43.177Z,828.82
2017-05-05T00:49:47.642Z,828.89
2017-05-05T00:49:52.070Z,828.84
2017-05-05T00:49:56.379Z,828.86
2017-05-05T00:50:00.812Z,828.86
2017-05-05T00:50:05.006Z,828.83
2017-05-05T00:50:09.191Z,828.86
2017-05-05T00:50:13.500Z,828.86
2017-05-05T00:50:17.810Z,828.83
2017-05-05T00:50:22.245Z,828.86
2017-05-05T00:50:26.670Z,828.83
2017-05-05T00:50:31.102Z,828.84
2017-05-05T00:50:35.555Z,828.87
2017-05-05T00:50:39.983Z,828.85
2017-05-05T00:50:44.411Z,828.83
2017-05-05T00:50:48.614Z,828.86
2017-05-05T00:50:52.927Z,828.82
2017-05-05T00:50:57.232Z,828.84
2017-05-05T00:51:01.558Z,828.82
2017-05-05T00:51:05.980Z,828.84
2017-05-05T00:51:10.284Z,828.85
2017-05-05T00:51:14.597Z,828.84
2017-05-05T00:51:18.913Z,828.84
2017-05-05T00:51:23.219Z,828.82
2017-05-05T00:51:27.525Z,828.8
2017-05-05T00:51:31.948Z,828.82
2017-05-05T00:51:36.269Z,828.82
2017-05-05T00:51:40.696Z,828.78
2017-05-05T00:51:45.124Z,828.83
2017-05-05T00:51:49.561Z,828.8
2017-05-05T00:51:53.877Z,828.81
2017-05-05T00:51:58.306Z,828.78
2017-05-05T00:52:02.726Z,828.81
2017-05-05T00:52:07.033Z,828.81
2017-05-05T00:52:11.344Z,828.82
2017-05-05T00:52:15.652Z,828.74
2017-05-05T00:52:19.841Z,828.75
2017-05-05T00:52:24.042Z,828.83
2017-05-05T00:52:28.463Z,828.78
2017-05-05T00:52:32.884Z,828.78
2017-05-05T00:52:37.314Z,828.76
2017-05-05T00:52:41.765Z,828.75
2017-05-05T00:52:46.199Z,828.78
2017-05-05T00:52:50.627Z,828.74
2017-05-05T00:52:55.062Z,828.79
2017-05-05T00:52:59.491Z,828.74
2017-05-05T00:53:04.066Z,828.79
2017-05-05T00:53:08.377Z,828.77
2017-05-05T00:53:12.681Z,828.75
2017-05-05T00:53:17.003Z,828.77
2017-05-05T00:53:21.313Z,828.73
2017-05-05T00:53:25.739Z,828.71
2017-05-05T00:53:30.170Z,828.74
2017-05-05T00:53:34.599Z,828.69
2017-05-05T00:53:39.067Z,828.73
2017-05-05T00:53:43.493Z,828.72
2017-05-05T00:53:47.929Z,828.74
2017-05-05T00:53:52.240Z,828.72
2017-05-05T00:53:56.575Z,828.71
2017-05-05T00:54:00.889Z,828.67
2017-05-05T00:54:05.314Z,828.66
2017-05-05T00:54:09.625Z,828.73
2017-05-05T00:54:13.952Z,828.65
2017-05-05T00:54:18.255Z,828.7
2017-05-05T00:54:22.678Z,828.67
2017-05-05T00:54:26.987Z,828.64
2017-05-05T00:54:31.416Z,828.69
2017-05-05T00:54:35.839Z,828.71
2017-05-05T00:54:40.263Z,828.7